createdAt,value
2019-01-21T00:14:50.391Z,81.79
2019-01-21T00:43:19.208Z,81.8
2019-01-21T01:11:54.029Z,82.07
2019-01-21T01:40:29.420Z,82.17
2019-01-21T02:09:03.789Z,81.86
2019-01-21T02:37:39.784Z,82.93
2019-01-21T03:06:16.060Z,82.87
2019-01-21T03:34:51.063Z,82.67
2019-01-21T04:03:25.675Z,82.71
2019-01-21T04:32:01.087Z,83.19
2019-01-21T05:00:38.410Z,83.32
2019-01-21T05:29:14.007Z,83.39
2019-01-21T05:57:50.754Z,82.78
2019-01-21T06:26:26.306Z,83.23
2019-01-21T06:55:01.493Z,83.24
2019-01-21T07:23:36.247Z,83.48
2019-01-21T07:52:12.804Z,83.19
2019-01-21T08:20:49.769Z,82.67
2019-01-21T08:49:30.932Z,81.59
2019-01-21T09:17:53.676Z,81.2
2019-01-21T09:46:30.294Z,80.55
2019-01-21T10:15:07.578Z,80.29
2019-01-21T10:43:43.957Z,80.02
2019-01-21T11:12:23.486Z,79.83
2019-01-21T11:41:04.016Z,79.71
2019-01-21T12:09:37.749Z,79.48
2019-01-21T12:38:14.659Z,79.27
2019-01-21T13:06:50.865Z,78.25
2019-01-21T13:35:30.836Z,78.51
2019-01-21T14:04:11.265Z,77.61
2019-01-21T14:32:43.729Z,77.84
2019-01-21T15:01:17.526Z,78.39
2019-01-21T15:29:51.208Z,78.87
2019-01-21T15:58:26.750Z,78.9
2019-01-21T16:26:57.753Z,78.76
2019-01-21T16:55:32.987Z,79.21
2019-01-21T17:24:06.065Z,80.15
2019-01-21T17:52:35.715Z,80.89
2019-01-21T18:21:05.493Z,81.31
2019-01-21T18:49:43.238Z,83.09
2019-01-21T19:18:14.685Z,82.76
2019-01-21T19:46:48.745Z,83.06
2019-01-21T20:15:24.332Z,84.04
2019-01-21T20:43:59.638Z,83.91
2019-01-21T21:12:34.919Z,84.81
2019-01-21T21:41:09.503Z,86.34
2019-01-21T22:09:47.287Z,86.3
2019-01-21T22:38:21.303Z,85.98
2019-01-21T23:06:50.058Z,86.04
2019-01-21T23:35:27.555Z,86.13
